createdAt,value
2023-01-26T00:00:18.011Z,20.58
2023-01-26T00:02:48.933Z,18.83
2023-01-26T00:05:17.560Z,18.38
2023-01-26T00:07:47.927Z,19.23
2023-01-26T00:10:19.440Z,16.55
2023-01-26T00:12:58.524Z,19.48
2023-01-26T00:15:30.885Z,19.08
2023-01-26T00:17:59.442Z,19.45
2023-01-26T00:20:30.765Z,18.70
2023-01-26T00:23:10.154Z,21.80
2023-01-26T00:25:41.288Z,20.25
2023-01-26T00:28:09.709Z,18.55
2023-01-26T00:30:40.081Z,18.77
2023-01-26T00:33:10.983Z,18.48
2023-01-26T00:35:39.611Z,19.23
2023-01-26T00:38:08.403Z,20.00
2023-01-26T00:40:40.026Z,19.80
2023-01-26T00:46:12.667Z,19.85
2023-01-26T00:48:41.023Z,19.52
2023-01-26T00:51:11.877Z,19.67
2023-01-26T00:53:43.551Z,20.20
2023-01-26T00:56:12.109Z,21.75
2023-01-26T00:58:40.755Z,20.35
2023-01-26T01:01:12.564Z,21.25
2023-01-26T01:03:40.950Z,21.70
2023-01-26T01:06:09.574Z,24.52
2023-01-26T01:08:38.383Z,23.58
2023-01-26T01:11:20.891Z,25.80
2023-01-26T01:13:52.718Z,25.40
2023-01-26T01:16:24.810Z,24.08
2023-01-26T01:18:56.807Z,23.83
2023-01-26T01:21:26.070Z,23.50
2023-01-26T01:23:54.504Z,24.83
2023-01-26T01:26:22.846Z,25.00
2023-01-26T01:28:54.714Z,24.05
2023-01-26T01:31:25.766Z,23.25
2023-01-26T01:33:55.019Z,21.70
2023-01-26T01:36:27.162Z,25.42
2023-01-26T01:38:55.903Z,23.80
2023-01-26T01:41:24.764Z,21.75
2023-01-26T01:43:55.733Z,24.70
2023-01-26T01:46:33.946Z,24.88
2023-01-26T01:49:07.076Z,24.45
2023-01-26T01:51:39.158Z,23.92
2023-01-26T01:54:12.949Z,21.20
2023-01-26T01:56:44.350Z,22.02
2023-01-26T01:59:14.806Z,23.92
2023-01-26T02:01:44.716Z,22.65
2023-01-26T02:04:13.211Z,23.45
2023-01-26T02:06:48.048Z,22.00
2023-01-26T02:09:32.514Z,23.23
2023-01-26T02:12:02.468Z,21.45
2023-01-26T02:14:31.481Z,22.90
2023-01-26T02:17:02.411Z,23.02
2023-01-26T02:19:39.124Z,23.63
2023-01-26T02:22:16.647Z,23.88
2023-01-26T02:24:45.375Z,23.45
2023-01-26T02:27:15.794Z,21.70
2023-01-26T02:29:44.486Z,25.30
2023-01-26T02:32:15.265Z,22.20
2023-01-26T02:34:43.662Z,22.88
2023-01-26T02:37:15.693Z,21.70
2023-01-26T02:39:51.104Z,20.30
2023-01-26T02:42:41.532Z,22.63
2023-01-26T02:45:14.101Z,19.90
2023-01-26T02:47:42.841Z,16.42
2023-01-26T02:50:11.467Z,19.23
2023-01-26T02:52:40.040Z,19.08
2023-01-26T02:55:26.799Z,18.63
2023-01-26T02:57:57.956Z,17.85
2023-01-26T03:00:28.972Z,19.70
2023-01-26T03:02:59.899Z,20.10
2023-01-26T03:05:30.192Z,21.15
2023-01-26T03:07:58.675Z,22.50
2023-01-26T03:10:27.241Z,21.80
2023-01-26T03:12:58.945Z,20.58
2023-01-26T03:15:44.015Z,20.92
2023-01-26T03:18:34.158Z,19.90
2023-01-26T03:21:21.170Z,20.25
2023-01-26T03:24:08.906Z,21.58
2023-01-26T03:26:57.898Z,19.77
2023-01-26T03:29:30.660Z,18.63
2023-01-26T03:31:59.803Z,18.33
2023-01-26T03:34:29.745Z,15.93
2023-01-26T03:36:58.115Z,16.30
2023-01-26T03:39:55.980Z,20.25
2023-01-26T03:42:41.969Z,17.90
2023-01-26T03:45:30.677Z,18.45
2023-01-26T03:48:23.805Z,18.35
2023-01-26T03:51:09.244Z,21.17
2023-01-26T03:53:55.648Z,19.23
2023-01-26T03:56:24.966Z,19.45
2023-01-26T03:58:55.213Z,19.40
2023-01-26T04:01:28.067Z,19.60
2023-01-26T04:04:16.176Z,19.58
2023-01-26T04:07:05.660Z,18.52
2023-01-26T04:09:34.560Z,19.98
2023-01-26T04:12:02.936Z,19.42
2023-01-26T04:14:49.744Z,22.02
2023-01-26T04:17:43.663Z,19.95
2023-01-26T04:20:30.654Z,20.98
2023-01-26T04:23:00.164Z,22.13
2023-01-26T04:25:28.836Z,22.50
2023-01-26T04:27:57.196Z,20.60
2023-01-26T04:30:29.154Z,19.67
2023-01-26T04:32:59.989Z,19.40
2023-01-26T04:35:30.799Z,17.35
2023-01-26T04:37:59.224Z,18.73
2023-01-26T04:40:27.941Z,18.98
2023-01-26T04:42:56.744Z,20.77
2023-01-26T04:45:25.196Z,19.27
2023-01-26T04:47:53.561Z,20.65
2023-01-26T04:50:23.367Z,19.73
2023-01-26T04:52:53.778Z,18.63
2023-01-26T04:55:22.870Z,21.27
2023-01-26T04:57:51.327Z,18.63
2023-01-26T05:00:20.439Z,20.27
2023-01-26T05:02:48.902Z,21.35
2023-01-26T05:05:17.272Z,22.20
2023-01-26T05:07:50.418Z,21.05
2023-01-26T05:10:19.230Z,19.75
2023-01-26T05:12:48.018Z,21.33
2023-01-26T05:15:16.387Z,19.67
2023-01-26T05:17:44.793Z,20.42
2023-01-26T05:20:14.241Z,19.83
2023-01-26T05:22:42.640Z,21.40
2023-01-26T05:25:13.370Z,21.38
2023-01-26T05:27:41.725Z,22.25
2023-01-26T05:30:14.381Z,20.70
2023-01-26T05:32:43.140Z,17.98
2023-01-26T05:35:12.486Z,18.77
2023-01-26T05:37:42.434Z,16.83
2023-01-26T05:40:14.264Z,16.05
2023-01-26T05:42:44.424Z,15.18
2023-01-26T05:45:16.238Z,13.05
2023-01-26T05:47:44.831Z,16.33
2023-01-26T05:50:14.382Z,16.52
2023-01-26T05:52:43.683Z,16.73
2023-01-26T05:55:13.914Z,16.83
2023-01-26T05:57:42.542Z,17.00
2023-01-26T06:00:13.900Z,17.02
2023-01-26T06:02:48.816Z,18.15
2023-01-26T06:05:17.469Z,16.73
2023-01-26T06:07:45.862Z,15.77
2023-01-26T06:10:15.705Z,16.40
2023-01-26T06:12:44.037Z,18.15
2023-01-26T06:15:13.712Z,17.27
2023-01-26T06:17:42.090Z,16.15
2023-01-26T06:20:13.334Z,19.13
2023-01-26T06:22:41.904Z,17.33
2023-01-26T06:25:13.269Z,16.92
2023-01-26T06:27:43.263Z,14.75
2023-01-26T06:30:30.023Z,15.43
2023-01-26T06:33:00.099Z,17.58
2023-01-26T06:35:31.367Z,12.55
2023-01-26T06:37:59.888Z,11.45
2023-01-26T06:40:46.094Z,10.98
2023-01-26T06:43:18.643Z,11.65
2023-01-26T06:45:56.376Z,11.88
2023-01-26T06:48:24.798Z,10.75
2023-01-26T06:50:53.881Z,10.65
2023-01-26T06:53:43.077Z,10.50
2023-01-26T06:59:16.566Z,9.88
2023-01-26T07:01:51.908Z,9.77
2023-01-26T07:04:20.333Z,10.75
2023-01-26T07:06:48.790Z,10.15
2023-01-26T07:09:20.389Z,7.80
2023-01-26T07:12:00.127Z,8.15
2023-01-26T07:14:32.738Z,9.20
2023-01-26T07:17:01.168Z,8.45
2023-01-26T07:19:34.128Z,8.57
2023-01-26T07:22:03.221Z,7.93
2023-01-26T07:24:34.896Z,6.90
2023-01-26T07:27:45.382Z,8.30
2023-01-26T07:35:00.600Z,8.15
2023-01-26T08:43:43.932Z,9.50
2023-01-26T08:46:13.555Z,10.05
2023-01-26T08:57:08.789Z,10.65
2023-01-26T08:59:42.262Z,9.65
2023-01-26T09:10:20.482Z,9.13
2023-01-26T09:15:41.033Z,7.75
2023-01-26T14:22:27.891Z,18.95
2023-01-26T14:25:39.033Z,18.00
2023-01-26T14:31:44.985Z,19.60
2023-01-26T14:41:34.819Z,18.60
2023-01-26T14:44:09.222Z,18.73
2023-01-26T14:46:51.570Z,18.05
2023-01-26T14:49:51.799Z,16.73
2023-01-26T14:52:39.107Z,17.15
2023-01-26T14:55:27.637Z,18.10
2023-01-26T14:58:40.895Z,16.95
2023-01-26T15:01:40.224Z,17.33
2023-01-26T15:04:24.971Z,16.08
2023-01-26T15:07:22.072Z,15.35
2023-01-26T15:10:00.809Z,14.18
2023-01-26T15:12:48.576Z,15.43
2023-01-26T15:15:44.022Z,17.25
2023-01-26T15:18:24.558Z,15.40
2023-01-26T15:21:29.132Z,14.60
2023-01-26T15:24:02.023Z,15.32
2023-01-26T15:26:55.008Z,16.58
2023-01-26T15:32:37.992Z,15.15
2023-01-26T15:35:28.503Z,16.42
2023-01-26T15:38:04.994Z,17.58
2023-01-26T15:40:34.708Z,18.45
2023-01-26T15:43:15.152Z,16.35
2023-01-26T15:46:11.572Z,16.70
2023-01-26T15:48:50.611Z,15.95
2023-01-26T15:51:26.038Z,15.15
2023-01-26T15:54:05.795Z,15.68
2023-01-26T15:56:56.982Z,15.73
2023-01-26T15:59:33.415Z,16.08
2023-01-26T16:02:16.340Z,16.65
2023-01-26T16:04:53.135Z,15.98
2023-01-26T16:07:27.948Z,15.45
2023-01-26T16:10:07.973Z,16.85
2023-01-26T16:12:51.160Z,17.33
2023-01-26T16:15:56.198Z,14.55
2023-01-26T16:18:27.886Z,16.60
2023-01-26T16:21:29.616Z,14.55
2023-01-26T16:24:13.111Z,12.45
2023-01-26T16:26:49.824Z,13.20
2023-01-26T16:29:37.104Z,13.95
2023-01-26T16:32:33.556Z,14.85
2023-01-26T16:35:17.599Z,16.77
2023-01-26T16:37:52.356Z,14.30
2023-01-26T16:40:37.328Z,15.35
2023-01-26T16:45:52.284Z,15.40
2023-01-26T16:51:25.138Z,18.38
2023-01-26T16:54:20.571Z,21.05
2023-01-26T16:57:05.507Z,16.50
2023-01-26T17:02:53.858Z,53.38
2023-01-26T17:05:37.325Z,84.20
2023-01-26T17:08:21.247Z,30.02
2023-01-26T17:11:02.466Z,49.25
2023-01-26T17:14:07.339Z,48.70
2023-01-26T17:41:11.812Z,15.75
2023-01-26T17:44:51.373Z,15.38
2023-01-26T17:55:22.670Z,15.80
2023-01-26T17:58:11.675Z,16.20
2023-01-26T18:00:49.390Z,15.73
2023-01-26T18:03:42.658Z,16.80
2023-01-26T18:06:13.186Z,17.42
2023-01-26T18:08:43.886Z,18.63
2023-01-26T18:14:40.534Z,17.00
2023-01-26T18:53:11.497Z,14.23
2023-01-26T18:56:21.840Z,13.75
2023-01-26T18:58:53.925Z,15.27
2023-01-26T19:24:06.374Z,12.90
2023-01-26T19:26:46.656Z,13.52
2023-01-26T19:38:28.052Z,15.30
2023-01-26T20:02:38.722Z,15.02
2023-01-26T20:09:29.403Z,15.60
2023-01-26T20:12:20.133Z,13.23
2023-01-26T20:15:41.095Z,13.73
2023-01-26T20:32:16.034Z,13.60
2023-01-26T20:38:58.785Z,13.23
2023-01-26T20:41:42.705Z,14.43
2023-01-26T20:44:36.299Z,14.05
2023-01-26T20:47:20.963Z,14.90
2023-01-26T20:50:02.454Z,15.60
2023-01-26T20:52:43.725Z,12.63
2023-01-26T20:55:41.709Z,12.68
2023-01-26T20:58:22.783Z,11.60
2023-01-26T21:01:09.992Z,11.90
2023-01-26T21:04:11.340Z,11.18
2023-01-26T21:06:42.191Z,12.90
2023-01-26T21:09:30.634Z,13.25
2023-01-26T21:15:06.648Z,12.38
2023-01-26T21:21:22.148Z,13.10
2023-01-26T21:24:39.730Z,12.23
2023-01-26T21:28:03.757Z,12.32
2023-01-26T21:36:32.267Z,11.52
2023-01-26T21:39:13.477Z,12.38
2023-01-26T21:46:15.883Z,11.73
2023-01-26T21:49:15.192Z,13.27
2023-01-26T21:58:01.751Z,12.07
2023-01-26T22:12:31.984Z,13.00
2023-01-26T22:43:15.171Z,9.60
2023-01-26T22:48:52.090Z,10.95
2023-01-26T22:54:47.327Z,10.95
2023-01-26T23:46:53.647Z,8.10
2023-01-26T23:52:55.796Z,10.13
